Terminal Aerodrome Forecast
Issued by NWS Melbourne, FL

Home | Current Version | Previous Version | Text Only | Print | Product List | Glossary On
Versions: 1 2 3 4 5 6 7 8 9 10 11 12 13 14 15
000
FTUS42 KMLB 060538
TAFMLB
TAF
KMLB 060538Z 0606/0706 03008KT P6SM VCSH SCT015 BKN100
      TEMPO 0606/0610 3SM SHRA BKN020
     FM061200 02011KT P6SM VCSH SCT020 BKN030
      TEMPO 0612/0616 2SM SHRA BKN020
     FM061600 35015G22KT P6SM SCT020 BKN030
      TEMPO 0616/0620 3SM SHRA BKN020
     FM062000 36013G21KT P6SM SCT020 BKN030
     FM070000 35010KT P6SM FEW020 BKN035=

USA.gov is the U.S. government's official web portal to all federal, state and local government web resources and services.